KHHR

Jack Northrop Field / Hawthorne Municipal Airport

Hawthorne, California, USA
METAR KHHR 211253Z AUTO 00000KT 10SM OVC090 09/M04 A3011 RMK AO2 SLP196 T00941039
Observed Flight Rules
Feb-21 @ 12:53 UTC (14 minutes ago) Visual Flight Rules
Wind Visibility Clouds
Calm 10 miles
  • Overcast at 9,000' AGL
Temperatures Readings
Current 9°C / 48°F
Dewpoint -4°C / 25°F
Humidity 40%
Altimeter 30.11" Hg
Pressure 1019.6 hPa
Elevation 18
METAR KHHR 211253Z AUTO 00000KT 10SM OVC090 09/M04 A3011 RMK AO2 SLP196 T00941039
Observed Flight Rules
Feb-21 @ 12:53 UTC
(14 minutes ago)
VFR
Wind Visibility
Calm 10 miles
Clouds
  • Overcast at 9,000' AGL
Temperature Dewpoint
9°C / 48°F -4°C / 25°F
Humidity Altimeter Pressure
40% 30.11" Hg 1019.6 hPa